sensor_id;sensor_type;location;lat;lon;timestamp;pressure;altitude;pressure_sealevel;temperature;humidity
3796;BME280;1913;50.660;7.834;2023-02-28T00:00:10;98240.91;;;-2.57;100.00
3796;BME280;1913;50.660;7.834;2023-02-28T00:02:37;98242.22;;;-2.64;100.00
3796;BME280;1913;50.660;7.834;2023-02-28T00:05:04;98237.44;;;-2.56;100.00
3796;BME280;1913;50.660;7.834;2023-02-28T00:07:30;98234.94;;;-2.57;100.00
3796;BME280;1913;50.660;7.834;2023-02-28T00:09:56;98233.69;;;-2.65;100.00
3796;BME280;1913;50.660;7.834;2023-02-28T00:12:21;98234.41;;;-2.62;100.00
3796;BME280;1913;50.660;7.834;2023-02-28T00:14:48;98231.41;;;-2.69;100.00
3796;BME280;1913;50.660;7.834;2023-02-28T00:17:13;98225.44;;;-2.70;100.00
3796;BME280;1913;50.660;7.834;2023-02-28T00:19:38;98224.59;;;-2.70;100.00
3796;BME280;1913;50.660;7.834;2023-02-28T00:22:04;98229.09;;;-2.74;100.00
3796;BME280;1913;50.660;7.834;2023-02-28T00:24:29;98222.75;;;-2.82;100.00
3796;BME280;1913;50.660;7.834;2023-02-28T00:26:55;98232.34;;;-2.84;100.00
3796;BME280;1913;50.660;7.834;2023-02-28T00:29:20;98228.84;;;-2.83;100.00
3796;BME280;1913;50.660;7.834;2023-02-28T00:31:46;98229.94;;;-2.87;100.00
3796;BME280;1913;50.660;7.834;2023-02-28T00:34:11;98235.16;;;-2.89;100.00
3796;BME280;1913;50.660;7.834;2023-02-28T00:36:36;98238.84;;;-2.93;100.00
3796;BME280;1913;50.660;7.834;2023-02-28T00:39:02;98230.66;;;-3.00;100.00
3796;BME280;1913;50.660;7.834;2023-02-28T00:41:27;98229.66;;;-3.11;100.00
3796;BME280;1913;50.660;7.834;2023-02-28T00:43:53;98227.00;;;-3.10;100.00
3796;BME280;1913;50.660;7.834;2023-02-28T00:46:18;98228.66;;;-3.09;100.00
3796;BME280;1913;50.660;7.834;2023-02-28T00:48:44;98228.03;;;-3.13;100.00
3796;BME280;1913;50.660;7.834;2023-02-28T00:51:09;98225.53;;;-3.14;100.00
3796;BME280;1913;50.660;7.834;2023-02-28T00:53:35;98228.84;;;-3.12;100.00
3796;BME280;1913;50.660;7.834;2023-02-28T00:56:00;98232.88;;;-3.08;100.00
3796;BME280;1913;50.660;7.834;2023-02-28T00:58:26;98225.34;;;-3.11;100.00
3796;BME280;1913;50.660;7.834;2023-02-28T01:00:52;98224.63;;;-3.13;100.00
3796;BME280;1913;50.660;7.834;2023-02-28T01:03:19;98234.97;;;-3.15;100.00
3796;BME280;1913;50.660;7.834;2023-02-28T01:05:46;98235.09;;;-3.16;100.00
3796;BME280;1913;50.660;7.834;2023-02-28T01:08:12;98233.69;;;-3.22;100.00
3796;BME280;1913;50.660;7.834;2023-02-28T01:10:39;98239.38;;;-3.17;100.00
3796;BME280;1913;50.660;7.834;2023-02-28T01:13:04;98239.00;;;-3.25;100.00
3796;BME280;1913;50.660;7.834;2023-02-28T01:15:30;98233.69;;;-3.22;100.00
3796;BME280;1913;50.660;7.834;2023-02-28T01:17:57;98231.03;;;-3.20;100.00
3796;BME280;1913;50.660;7.834;2023-02-28T01:20:22;98235.16;;;-3.18;100.00
3796;BME280;1913;50.660;7.834;2023-02-28T01:22:48;98233.50;;;-3.19;100.00
3796;BME280;1913;50.660;7.834;2023-02-28T01:25:13;98225.34;;;-3.25;100.00
3796;BME280;1913;50.660;7.834;2023-02-28T01:27:39;98233.88;;;-3.10;100.00
3796;BME280;1913;50.660;7.834;2023-02-28T01:30:06;98232.03;;;-3.23;100.00
3796;BME280;1913;50.660;7.834;2023-02-28T01:32:32;98228.44;;;-3.20;100.00
3796;BME280;1913;50.660;7.834;2023-02-28T01:34:57;98227.56;;;-3.19;100.00
3796;BME280;1913;50.660;7.834;2023-02-28T01:37:23;98229.19;;;-3.18;100.00
3796;BME280;1913;50.660;7.834;2023-02-28T01:39:48;98225.97;;;-3.22;100.00
3796;BME280;1913;50.660;7.834;2023-02-28T01:42:13;98230.03;;;-3.18;100.00
3796;BME280;1913;50.660;7.834;2023-02-28T01:47:42;98230.47;;;-3.11;100.00
3796;BME280;1913;50.660;7.834;2023-02-28T01:50:16;98225.53;;;-3.00;100.00
3796;BME280;1913;50.660;7.834;2023-02-28T01:52:44;98217.97;;;-2.89;100.00
3796;BME280;1913;50.660;7.834;2023-02-28T01:55:12;98226.72;;;-2.91;100.00
3796;BME280;1913;50.660;7.834;2023-02-28T01:57:42;98219.66;;;-2.87;100.00
3796;BME280;1913;50.660;7.834;2023-02-28T02:00:13;98214.75;;;-2.78;100.00
3796;BME280;1913;50.660;7.834;2023-02-28T02:02:45;98211.81;;;-2.72;100.00
3796;BME280;1913;50.660;7.834;2023-02-28T02:05:18;98215.13;;;-2.70;100.00
3796;BME280;1913;50.660;7.834;2023-02-28T02:07:45;98212.81;;;-2.74;100.00
3796;BME280;1913;50.660;7.834;2023-02-28T02:10:21;98212.56;;;-2.70;100.00
3796;BME280;1913;50.660;7.834;2023-02-28T02:18:20;98203.47;;;-2.75;100.00
3796;BME280;1913;50.660;7.834;2023-02-28T02:29:34;98195.59;;;-3.01;100.00
3796;BME280;1913;50.660;7.834;2023-02-28T02:37:22;98193.47;;;-3.37;100.00
3796;BME280;1913;50.660;7.834;2023-02-28T02:42:40;98190.50;;;-3.45;100.00
3796;BME280;1913;50.660;7.834;2023-02-28T02:45:21;98183.72;;;-3.61;100.00
3796;BME280;1913;50.660;7.834;2023-02-28T02:47:50;98189.41;;;-3.70;100.00
3796;BME280;1913;50.660;7.834;2023-02-28T02:50:22;98194.53;;;-3.70;100.00
3796;BME280;1913;50.660;7.834;2023-02-28T02:52:52;98194.13;;;-3.78;100.00
3796;BME280;1913;50.660;7.834;2023-02-28T02:55:20;98191.47;;;-3.91;100.00
3796;BME280;1913;50.660;7.834;2023-02-28T02:57:51;98185.09;;;-3.99;100.00
3796;BME280;1913;50.660;7.834;2023-02-28T03:00:20;98196.13;;;-3.97;100.00
3796;BME280;1913;50.660;7.834;2023-02-28T03:02:49;98195.41;;;-4.15;100.00
3796;BME280;1913;50.660;7.834;2023-02-28T03:05:30;98196.88;;;-4.11;100.00
3796;BME280;1913;50.660;7.834;2023-02-28T03:07:57;98197.06;;;-4.14;100.00
3796;BME280;1913;50.660;7.834;2023-02-28T03:13:06;98200.78;;;-4.20;100.00
3796;BME280;1913;50.660;7.834;2023-02-28T03:15:58;98201.22;;;-4.27;100.00
3796;BME280;1913;50.660;7.834;2023-02-28T03:24:13;98198.56;;;-4.42;100.00
3796;BME280;1913;50.660;7.834;2023-02-28T03:26:46;98203.63;;;-4.40;100.00
3796;BME280;1913;50.660;7.834;2023-02-28T03:31:54;98196.75;;;-4.55;100.00
3796;BME280;1913;50.660;7.834;2023-02-28T03:34:33;98210.50;;;-4.57;100.00
3796;BME280;1913;50.660;7.834;2023-02-28T03:37:08;98199.06;;;-4.35;100.00
3796;BME280;1913;50.660;7.834;2023-02-28T03:39:42;98200.41;;;-4.44;100.00
3796;BME280;1913;50.660;7.834;2023-02-28T03:42:12;98195.13;;;-4.41;100.00
3796;BME280;1913;50.660;7.834;2023-02-28T03:44:49;98197.31;;;-4.35;100.00
3796;BME280;1913;50.660;7.834;2023-02-28T03:47:38;98196.00;;;-4.42;100.00
3796;BME280;1913;50.660;7.834;2023-02-28T03:50:18;98197.03;;;-4.44;100.00
3796;BME280;1913;50.660;7.834;2023-02-28T03:52:58;98197.09;;;-4.46;100.00
3796;BME280;1913;50.660;7.834;2023-02-28T03:55:32;98199.59;;;-4.44;100.00
3796;BME280;1913;50.660;7.834;2023-02-28T04:00:47;98191.88;;;-4.60;100.00
3796;BME280;1913;50.660;7.834;2023-02-28T04:03:14;98197.19;;;-4.63;100.00
3796;BME280;1913;50.660;7.834;2023-02-28T04:05:51;98194.63;;;-4.63;100.00
3796;BME280;1913;50.660;7.834;2023-02-28T04:08:17;98193.94;;;-4.67;100.00
3796;BME280;1913;50.660;7.834;2023-02-28T04:10:45;98192.97;;;-4.64;100.00
3796;BME280;1913;50.660;7.834;2023-02-28T04:13:12;98198.19;;;-4.66;100.00
3796;BME280;1913;50.660;7.834;2023-02-28T04:15:37;98200.50;;;-4.61;100.00
3796;BME280;1913;50.660;7.834;2023-02-28T04:18:03;98196.88;;;-4.73;100.00
3796;BME280;1913;50.660;7.834;2023-02-28T04:20:28;98201.25;;;-4.75;100.00
3796;BME280;1913;50.660;7.834;2023-02-28T04:22:54;98197.84;;;-4.75;100.00
3796;BME280;1913;50.660;7.834;2023-02-28T04:25:19;98193.88;;;-4.81;100.00
3796;BME280;1913;50.660;7.834;2023-02-28T04:27:44;98204.06;;;-4.79;100.00
3796;BME280;1913;50.660;7.834;2023-02-28T04:30:10;98191.41;;;-4.83;100.00
3796;BME280;1913;50.660;7.834;2023-02-28T04:32:36;98197.59;;;-4.87;100.00
3796;BME280;1913;50.660;7.834;2023-02-28T04:35:01;98201.91;;;-4.87;100.00
3796;BME280;1913;50.660;7.834;2023-02-28T04:37:27;98201.97;;;-4.89;100.00
3796;BME280;1913;50.660;7.834;2023-02-28T04:39:54;98199.91;;;-4.82;100.00
3796;BME280;1913;50.660;7.834;2023-02-28T04:42:20;98202.56;;;-4.84;100.00
3796;BME280;1913;50.660;7.834;2023-02-28T04:44:45;98206.03;;;-4.85;100.00
3796;BME280;1913;50.660;7.834;2023-02-28T04:47:12;98203.47;;;-4.85;100.00
3796;BME280;1913;50.660;7.834;2023-02-28T04:49:37;98206.38;;;-4.75;100.00
3796;BME280;1913;50.660;7.834;2023-02-28T04:52:03;98214.16;;;-4.76;100.00
3796;BME280;1913;50.660;7.834;2023-02-28T04:54:29;98211.50;;;-4.75;100.00
3796;BME280;1913;50.660;7.834;2023-02-28T04:56:55;98205.88;;;-4.82;100.00
3796;BME280;1913;50.660;7.834;2023-02-28T04:59:20;98198.28;;;-4.83;100.00
3796;BME280;1913;50.660;7.834;2023-02-28T05:01:47;98203.25;;;-4.80;100.00
3796;BME280;1913;50.660;7.834;2023-02-28T05:04:13;98207.69;;;-4.84;100.00
3796;BME280;1913;50.660;7.834;2023-02-28T05:06:38;98205.19;;;-4.85;100.00
3796;BME280;1913;50.660;7.834;2023-02-28T05:09:04;98208.28;;;-4.78;100.00
3796;BME280;1913;50.660;7.834;2023-02-28T05:11:32;98206.78;;;-4.83;100.00
3796;BME280;1913;50.660;7.834;2023-02-28T05:14:02;98208.19;;;-4.77;100.00
3796;BME280;1913;50.660;7.834;2023-02-28T05:16:29;98205.72;;;-4.78;100.00
3796;BME280;1913;50.660;7.834;2023-02-28T05:18:54;98201.50;;;-4.79;100.00
3796;BME280;1913;50.660;7.834;2023-02-28T05:21:28;98207.84;;;-4.87;100.00
3796;BME280;1913;50.660;7.834;2023-02-28T05:23:54;98209.34;;;-4.83;100.00
3796;BME280;1913;50.660;7.834;2023-02-28T05:26:20;98209.16;;;-4.95;100.00
3796;BME280;1913;50.660;7.834;2023-02-28T05:28:46;98208.28;;;-4.94;100.00
3796;BME280;1913;50.660;7.834;2023-02-28T05:31:12;98213.78;;;-5.02;100.00
3796;BME280;1913;50.660;7.834;2023-02-28T05:33:37;98215.38;;;-5.33;100.00
3796;BME280;1913;50.660;7.834;2023-02-28T05:36:03;98218.09;;;-5.36;100.00
3796;BME280;1913;50.660;7.834;2023-02-28T05:38:29;98216.47;;;-5.54;100.00
3796;BME280;1913;50.660;7.834;2023-02-28T05:40:54;98224.16;;;-5.54;100.00
3796;BME280;1913;50.660;7.834;2023-02-28T05:43:20;98226.31;;;-5.64;100.00
3796;BME280;1913;50.660;7.834;2023-02-28T05:45:45;98225.06;;;-5.72;100.00
3796;BME280;1913;50.660;7.834;2023-02-28T05:48:11;98221.59;;;-5.89;100.00
3796;BME280;1913;50.660;7.834;2023-02-28T05:50:36;98222.81;;;-5.96;100.00
3796;BME280;1913;50.660;7.834;2023-02-28T05:53:02;98225.06;;;-6.07;100.00
3796;BME280;1913;50.660;7.834;2023-02-28T05:55:27;98224.00;;;-6.20;100.00
3796;BME280;1913;50.660;7.834;2023-02-28T05:57:53;98217.00;;;-6.17;100.00
3796;BME280;1913;50.660;7.834;2023-02-28T06:00:19;98219.25;;;-6.28;100.00
3796;BME280;1913;50.660;7.834;2023-02-28T06:02:44;98222.84;;;-6.32;100.00
3796;BME280;1913;50.660;7.834;2023-02-28T06:05:16;98219.38;;;-6.31;100.00
3796;BME280;1913;50.660;7.834;2023-02-28T06:07:42;98216.22;;;-6.36;100.00
3796;BME280;1913;50.660;7.834;2023-02-28T06:10:09;98221.84;;;-6.30;100.00
3796;BME280;1913;50.660;7.834;2023-02-28T06:12:35;98224.75;;;-6.18;100.00
3796;BME280;1913;50.660;7.834;2023-02-28T06:15:00;98220.69;;;-6.05;100.00
3796;BME280;1913;50.660;7.834;2023-02-28T06:17:26;98224.00;;;-5.86;100.00
3796;BME280;1913;50.660;7.834;2023-02-28T06:19:51;98228.78;;;-5.62;100.00
3796;BME280;1913;50.660;7.834;2023-02-28T06:22:17;98222.59;;;-5.41;100.00
3796;BME280;1913;50.660;7.834;2023-02-28T06:24:42;98223.72;;;-5.29;100.00
3796;BME280;1913;50.660;7.834;2023-02-28T06:27:07;98225.81;;;-5.20;100.00
3796;BME280;1913;50.660;7.834;2023-02-28T06:29:34;98223.88;;;-4.99;100.00
3796;BME280;1913;50.660;7.834;2023-02-28T06:32:00;98231.34;;;-4.78;100.00
3796;BME280;1913;50.660;7.834;2023-02-28T06:34:25;98236.66;;;-4.66;100.00
3796;BME280;1913;50.660;7.834;2023-02-28T06:36:51;98239.47;;;-4.54;100.00
3796;BME280;1913;50.660;7.834;2023-02-28T06:39:17;98238.31;;;-4.49;100.00
3796;BME280;1913;50.660;7.834;2023-02-28T06:41:43;98237.50;;;-4.34;100.00
3796;BME280;1913;50.660;7.834;2023-02-28T06:44:16;98244.94;;;-4.29;100.00
3796;BME280;1913;50.660;7.834;2023-02-28T06:46:42;98238.47;;;-4.20;100.00
3796;BME280;1913;50.660;7.834;2023-02-28T06:49:09;98244.09;;;-4.14;100.00
3796;BME280;1913;50.660;7.834;2023-02-28T06:51:37;98251.78;;;-4.14;100.00
3796;BME280;1913;50.660;7.834;2023-02-28T06:54:03;98257.25;;;-4.04;100.00
3796;BME280;1913;50.660;7.834;2023-02-28T06:56:29;98252.66;;;-3.99;100.00
3796;BME280;1913;50.660;7.834;2023-02-28T06:58:54;98251.25;;;-3.89;100.00
3796;BME280;1913;50.660;7.834;2023-02-28T07:01:20;98260.69;;;-3.89;100.00
3796;BME280;1913;50.660;7.834;2023-02-28T07:03:48;98261.94;;;-3.80;100.00
3796;BME280;1913;50.660;7.834;2023-02-28T07:06:21;98255.34;;;-3.70;100.00
3796;BME280;1913;50.660;7.834;2023-02-28T07:08:51;98254.00;;;-3.62;100.00
3796;BME280;1913;50.660;7.834;2023-02-28T07:11:21;98267.34;;;-3.55;100.00
3796;BME280;1913;50.660;7.834;2023-02-28T07:13:51;98260.19;;;-3.50;100.00
3796;BME280;1913;50.660;7.834;2023-02-28T07:16:17;98266.75;;;-3.30;100.00
3796;BME280;1913;50.660;7.834;2023-02-28T07:18:43;98260.41;;;-2.96;100.00
3796;BME280;1913;50.660;7.834;2023-02-28T07:21:10;98269.06;;;-2.68;100.00
3796;BME280;1913;50.660;7.834;2023-02-28T07:23:36;98265.50;;;-2.38;100.00
3796;BME280;1913;50.660;7.834;2023-02-28T07:26:03;98268.13;;;-2.11;100.00
3796;BME280;1913;50.660;7.834;2023-02-28T07:28:29;98267.66;;;-2.04;100.00
3796;BME280;1913;50.660;7.834;2023-02-28T07:30:55;98272.84;;;-1.91;100.00
3796;BME280;1913;50.660;7.834;2023-02-28T07:33:20;98266.41;;;-1.71;100.00
3796;BME280;1913;50.660;7.834;2023-02-28T07:35:46;98279.06;;;-1.28;100.00
3796;BME280;1913;50.660;7.834;2023-02-28T07:38:11;98265.38;;;-0.90;100.00
3796;BME280;1913;50.660;7.834;2023-02-28T07:40:39;98272.59;;;-0.83;100.00
3796;BME280;1913;50.660;7.834;2023-02-28T07:43:05;98269.75;;;-0.54;99.76
3796;BME280;1913;50.660;7.834;2023-02-28T07:45:31;98261.66;;;-0.24;98.09
3796;BME280;1913;50.660;7.834;2023-02-28T07:47:59;98266.31;;;-0.29;92.70
3796;BME280;1913;50.660;7.834;2023-02-28T07:50:25;98263.69;;;-0.16;88.19
3796;BME280;1913;50.660;7.834;2023-02-28T07:52:53;98263.75;;;0.19;88.52
3796;BME280;1913;50.660;7.834;2023-02-28T07:55:18;98263.66;;;0.56;82.87
3796;BME280;1913;50.660;7.834;2023-02-28T07:57:43;98274.41;;;0.74;73.87
3796;BME280;1913;50.660;7.834;2023-02-28T08:00:10;98273.75;;;1.28;74.45
3796;BME280;1913;50.660;7.834;2023-02-28T08:02:37;98267.66;;;1.51;65.40
3796;BME280;1913;50.660;7.834;2023-02-28T08:05:03;98264.94;;;1.64;62.80
3796;BME280;1913;50.660;7.834;2023-02-28T08:07:28;98264.78;;;2.31;62.23
3796;BME280;1913;50.660;7.834;2023-02-28T08:09:54;98264.22;;;2.91;59.12
3796;BME280;1913;50.660;7.834;2023-02-28T08:12:19;98260.63;;;2.82;56.29
3796;BME280;1913;50.660;7.834;2023-02-28T08:14:45;98254.97;;;2.98;55.91
3796;BME280;1913;50.660;7.834;2023-02-28T08:17:11;98261.44;;;2.82;54.28
3796;BME280;1913;50.660;7.834;2023-02-28T08:19:36;98258.91;;;2.71;53.95
3796;BME280;1913;50.660;7.834;2023-02-28T08:22:01;98252.25;;;2.57;53.73
3796;BME280;1913;50.660;7.834;2023-02-28T08:24:27;98250.75;;;2.55;52.84
3796;BME280;1913;50.660;7.834;2023-02-28T08:26:52;98258.28;;;2.58;53.29
3796;BME280;1913;50.660;7.834;2023-02-28T08:29:18;98261.50;;;2.71;52.61
3796;BME280;1913;50.660;7.834;2023-02-28T08:31:43;98256.03;;;2.95;51.95
3796;BME280;1913;50.660;7.834;2023-02-28T08:34:11;98257.50;;;3.40;51.91
3796;BME280;1913;50.660;7.834;2023-02-28T08:36:37;98257.91;;;2.83;49.41
3796;BME280;1913;50.660;7.834;2023-02-28T08:39:04;98255.81;;;2.56;49.84
3796;BME280;1913;50.660;7.834;2023-02-28T08:41:30;98266.47;;;2.74;50.25
3796;BME280;1913;50.660;7.834;2023-02-28T08:43:55;98263.50;;;3.09;48.12
3796;BME280;1913;50.660;7.834;2023-02-28T08:46:21;98259.88;;;2.17;48.04
3796;BME280;1913;50.660;7.834;2023-02-28T08:48:47;98260.22;;;2.66;48.06
3796;BME280;1913;50.660;7.834;2023-02-28T08:51:14;98261.50;;;2.71;48.44
3796;BME280;1913;50.660;7.834;2023-02-28T08:53:43;98259.81;;;2.28;48.05
3796;BME280;1913;50.660;7.834;2023-02-28T08:56:13;98260.03;;;2.04;48.79
3796;BME280;1913;50.660;7.834;2023-02-28T08:58:39;98262.09;;;2.75;49.70
3796;BME280;1913;50.660;7.834;2023-02-28T09:01:14;98266.91;;;3.31;47.79
3796;BME280;1913;50.660;7.834;2023-02-28T09:03:40;98253.81;;;3.92;44.95
3796;BME280;1913;50.660;7.834;2023-02-28T09:06:10;98274.41;;;3.65;44.38
3796;BME280;1913;50.660;7.834;2023-02-28T09:08:36;98268.44;;;3.74;43.96
3796;BME280;1913;50.660;7.834;2023-02-28T09:11:02;98267.47;;;3.75;43.45
3796;BME280;1913;50.660;7.834;2023-02-28T09:13:28;98261.47;;;3.94;42.27
3796;BME280;1913;50.660;7.834;2023-02-28T09:15:57;98263.59;;;3.29;42.92
3796;BME280;1913;50.660;7.834;2023-02-28T09:18:22;98274.72;;;3.41;43.02
3796;BME280;1913;50.660;7.834;2023-02-28T09:20:48;98268.53;;;3.72;42.51
3796;BME280;1913;50.660;7.834;2023-02-28T09:23:13;98266.34;;;3.68;42.77
3796;BME280;1913;50.660;7.834;2023-02-28T09:25:46;98259.47;;;4.17;42.46
3796;BME280;1913;50.660;7.834;2023-02-28T09:28:11;98269.16;;;4.83;40.77
3796;BME280;1913;50.660;7.834;2023-02-28T09:30:37;98260.72;;;4.42;40.04
3796;BME280;1913;50.660;7.834;2023-02-28T09:33:02;98271.44;;;5.05;41.13
3796;BME280;1913;50.660;7.834;2023-02-28T09:35:28;98277.25;;;5.46;39.37
3796;BME280;1913;50.660;7.834;2023-02-28T09:37:56;98272.50;;;5.87;37.90
3796;BME280;1913;50.660;7.834;2023-02-28T09:40:24;98267.31;;;5.12;38.86
3796;BME280;1913;50.660;7.834;2023-02-28T09:42:53;98279.78;;;5.28;38.54
3796;BME280;1913;50.660;7.834;2023-02-28T09:45:36;98271.53;;;5.33;38.72
3796;BME280;1913;50.660;7.834;2023-02-28T09:48:16;98263.78;;;5.03;38.79
3796;BME280;1913;50.660;7.834;2023-02-28T09:50:59;98280.59;;;5.66;38.31
3796;BME280;1913;50.660;7.834;2023-02-28T09:56:02;98286.16;;;5.06;38.12
3796;BME280;1913;50.660;7.834;2023-02-28T09:58:45;98276.09;;;5.11;37.61
3796;BME280;1913;50.660;7.834;2023-02-28T10:07:06;98276.41;;;5.55;38.64
3796;BME280;1913;50.660;7.834;2023-02-28T10:09:45;98274.59;;;5.09;37.64
3796;BME280;1913;50.660;7.834;2023-02-28T17:04:18;98207.84;;;1.54;50.78
3796;BME280;1913;50.660;7.834;2023-02-28T17:06:43;98216.06;;;1.48;51.10
3796;BME280;1913;50.660;7.834;2023-02-28T17:09:21;98212.91;;;1.44;51.40
3796;BME280;1913;50.660;7.834;2023-02-28T17:11:46;98215.50;;;1.33;52.35
3796;BME280;1913;50.660;7.834;2023-02-28T17:14:12;98213.75;;;1.23;53.14
3796;BME280;1913;50.660;7.834;2023-02-28T17:16:39;98216.22;;;1.13;53.46
3796;BME280;1913;50.660;7.834;2023-02-28T17:19:06;98220.56;;;1.01;53.69
3796;BME280;1913;50.660;7.834;2023-02-28T17:21:34;98217.63;;;0.94;54.04
3796;BME280;1913;50.660;7.834;2023-02-28T17:24:00;98231.03;;;0.88;54.87
3796;BME280;1913;50.660;7.834;2023-02-28T17:26:25;98225.75;;;0.90;55.42
3796;BME280;1913;50.660;7.834;2023-02-28T17:28:52;98242.53;;;0.73;56.02
3796;BME280;1913;50.660;7.834;2023-02-28T17:31:20;98231.81;;;0.66;57.04
3796;BME280;1913;50.660;7.834;2023-02-28T17:33:45;98234.16;;;0.58;57.91
3796;BME280;1913;50.660;7.834;2023-02-28T17:36:16;98235.09;;;0.57;58.94
3796;BME280;1913;50.660;7.834;2023-02-28T17:38:42;98237.53;;;0.47;60.39
3796;BME280;1913;50.660;7.834;2023-02-28T17:41:10;98242.72;;;0.47;61.12
3796;BME280;1913;50.660;7.834;2023-02-28T17:43:35;98248.22;;;0.43;61.92
3796;BME280;1913;50.660;7.834;2023-02-28T17:46:01;98241.25;;;0.32;64.25
3796;BME280;1913;50.660;7.834;2023-02-28T17:48:27;98241.09;;;0.22;65.93
3796;BME280;1913;50.660;7.834;2023-02-28T17:50:53;98242.69;;;0.12;68.10
3796;BME280;1913;50.660;7.834;2023-02-28T17:53:19;98247.75;;;-0.10;71.96
3796;BME280;1913;50.660;7.834;2023-02-28T17:55:48;98243.84;;;-0.16;73.07
3796;BME280;1913;50.660;7.834;2023-02-28T17:58:14;98247.78;;;-0.23;75.00
3796;BME280;1913;50.660;7.834;2023-02-28T18:00:39;98249.28;;;-0.32;79.88
3796;BME280;1913;50.660;7.834;2023-02-28T18:03:05;98247.75;;;-0.47;84.01
3796;BME280;1913;50.660;7.834;2023-02-28T18:05:31;98251.47;;;-0.51;87.19
3796;BME280;1913;50.660;7.834;2023-02-28T18:07:57;98252.34;;;-0.76;90.83
3796;BME280;1913;50.660;7.834;2023-02-28T18:10:22;98247.19;;;-0.76;91.54
3796;BME280;1913;50.660;7.834;2023-02-28T18:12:49;98249.97;;;-0.79;96.91
3796;BME280;1913;50.660;7.834;2023-02-28T18:15:18;98242.69;;;-0.98;100.00
3796;BME280;1913;50.660;7.834;2023-02-28T18:17:45;98247.72;;;-1.22;100.00
3796;BME280;1913;50.660;7.834;2023-02-28T18:20:11;98249.38;;;-1.34;100.00
3796;BME280;1913;50.660;7.834;2023-02-28T18:22:38;98248.13;;;-1.41;100.00
3796;BME280;1913;50.660;7.834;2023-02-28T18:25:05;98247.28;;;-1.54;100.00
3796;BME280;1913;50.660;7.834;2023-02-28T18:27:31;98245.63;;;-1.55;100.00
3796;BME280;1913;50.660;7.834;2023-02-28T18:29:56;98251.78;;;-1.71;100.00
3796;BME280;1913;50.660;7.834;2023-02-28T18:32:21;98258.59;;;-1.70;100.00
3796;BME280;1913;50.660;7.834;2023-02-28T18:34:47;98251.56;;;-1.67;100.00
3796;BME280;1913;50.660;7.834;2023-02-28T18:37:12;98251.38;;;-1.77;100.00
3796;BME280;1913;50.660;7.834;2023-02-28T18:39:39;98245.34;;;-1.90;100.00
3796;BME280;1913;50.660;7.834;2023-02-28T18:42:04;98248.84;;;-1.91;100.00
3796;BME280;1913;50.660;7.834;2023-02-28T18:44:30;98243.69;;;-1.91;100.00
3796;BME280;1913;50.660;7.834;2023-02-28T18:46:55;98244.19;;;-1.99;100.00
3796;BME280;1913;50.660;7.834;2023-02-28T18:49:21;98252.19;;;-2.04;100.00
3796;BME280;1913;50.660;7.834;2023-02-28T18:51:47;98253.69;;;-2.14;100.00
3796;BME280;1913;50.660;7.834;2023-02-28T18:54:13;98254.09;;;-2.20;100.00
3796;BME280;1913;50.660;7.834;2023-02-28T18:56:39;98255.28;;;-2.26;100.00
3796;BME280;1913;50.660;7.834;2023-02-28T18:59:05;98253.72;;;-2.28;100.00
3796;BME280;1913;50.660;7.834;2023-02-28T19:01:31;98257.28;;;-2.44;100.00
3796;BME280;1913;50.660;7.834;2023-02-28T19:03:59;98261.31;;;-2.39;100.00
3796;BME280;1913;50.660;7.834;2023-02-28T19:06:25;98261.47;;;-2.43;100.00
3796;BME280;1913;50.660;7.834;2023-02-28T19:08:55;98265.19;;;-2.47;100.00
3796;BME280;1913;50.660;7.834;2023-02-28T19:11:22;98263.19;;;-2.56;100.00
3796;BME280;1913;50.660;7.834;2023-02-28T19:13:48;98264.09;;;-2.57;100.00
3796;BME280;1913;50.660;7.834;2023-02-28T19:16:15;98265.19;;;-2.61;100.00
3796;BME280;1913;50.660;7.834;2023-02-28T19:18:42;98264.56;;;-2.65;100.00
3796;BME280;1913;50.660;7.834;2023-02-28T19:21:09;98263.56;;;-2.62;100.00
3796;BME280;1913;50.660;7.834;2023-02-28T19:23:36;98262.81;;;-2.64;100.00
3796;BME280;1913;50.660;7.834;2023-02-28T19:26:10;98254.59;;;-2.56;100.00
3796;BME280;1913;50.660;7.834;2023-02-28T19:28:36;98267.84;;;-2.34;100.00
3796;BME280;1913;50.660;7.834;2023-02-28T19:31:02;98268.91;;;-2.24;100.00
3796;BME280;1913;50.660;7.834;2023-02-28T19:33:28;98261.59;;;-2.03;100.00
3796;BME280;1913;50.660;7.834;2023-02-28T19:35:54;98267.78;;;-1.93;100.00
3796;BME280;1913;50.660;7.834;2023-02-28T19:38:19;98271.97;;;-1.77;100.00
3796;BME280;1913;50.660;7.834;2023-02-28T19:40:44;98273.66;;;-1.63;100.00
3796;BME280;1913;50.660;7.834;2023-02-28T19:43:10;98268.09;;;-1.57;100.00
3796;BME280;1913;50.660;7.834;2023-02-28T19:45:36;98266.78;;;-1.50;100.00
3796;BME280;1913;50.660;7.834;2023-02-28T19:48:03;98268.00;;;-1.56;100.00
3796;BME280;1913;50.660;7.834;2023-02-28T19:50:31;98259.22;;;-1.53;100.00
3796;BME280;1913;50.660;7.834;2023-02-28T19:52:56;98256.56;;;-1.52;100.00
3796;BME280;1913;50.660;7.834;2023-02-28T19:55:22;98257.50;;;-1.53;100.00
3796;BME280;1913;50.660;7.834;2023-02-28T19:57:47;98268.84;;;-1.55;100.00
3796;BME280;1913;50.660;7.834;2023-02-28T20:00:14;98263.56;;;-1.54;100.00
3796;BME280;1913;50.660;7.834;2023-02-28T20:02:40;98260.66;;;-1.62;100.00
3796;BME280;1913;50.660;7.834;2023-02-28T20:05:07;98263.63;;;-1.68;100.00
3796;BME280;1913;50.660;7.834;2023-02-28T20:07:33;98268.66;;;-1.79;100.00
3796;BME280;1913;50.660;7.834;2023-02-28T20:09:58;98267.22;;;-1.83;100.00
3796;BME280;1913;50.660;7.834;2023-02-28T20:12:24;98262.75;;;-1.94;100.00
3796;BME280;1913;50.660;7.834;2023-02-28T20:14:51;98265.63;;;-1.99;100.00
3796;BME280;1913;50.660;7.834;2023-02-28T20:17:17;98258.28;;;-2.05;100.00
3796;BME280;1913;50.660;7.834;2023-02-28T20:19:43;98253.69;;;-2.14;100.00
3796;BME280;1913;50.660;7.834;2023-02-28T20:22:08;98250.44;;;-2.30;100.00
3796;BME280;1913;50.660;7.834;2023-02-28T20:24:37;98252.38;;;-2.34;100.00
3796;BME280;1913;50.660;7.834;2023-02-28T20:27:02;98254.03;;;-2.33;100.00
3796;BME280;1913;50.660;7.834;2023-02-28T20:29:28;98243.09;;;-2.36;100.00
3796;BME280;1913;50.660;7.834;2023-02-28T20:31:54;98246.97;;;-2.44;100.00
3796;BME280;1913;50.660;7.834;2023-02-28T20:34:22;98243.94;;;-2.50;100.00
3796;BME280;1913;50.660;7.834;2023-02-28T20:36:48;98234.94;;;-2.57;100.00
3796;BME280;1913;50.660;7.834;2023-02-28T20:39:14;98234.41;;;-2.48;100.00
3796;BME280;1913;50.660;7.834;2023-02-28T20:41:40;98233.84;;;-2.53;100.00
3796;BME280;1913;50.660;7.834;2023-02-28T20:44:08;98239.63;;;-2.50;100.00
3796;BME280;1913;50.660;7.834;2023-02-28T20:46:36;98233.47;;;-2.47;100.00
3796;BME280;1913;50.660;7.834;2023-02-28T20:49:02;98235.66;;;-2.41;100.00
3796;BME280;1913;50.660;7.834;2023-02-28T20:51:28;98234.19;;;-2.31;100.00
3796;BME280;1913;50.660;7.834;2023-02-28T20:53:54;98244.00;;;-2.23;100.00
3796;BME280;1913;50.660;7.834;2023-02-28T20:56:21;98239.81;;;-2.11;100.00